createdAt,value
2024-01-11T00:01:51.393Z,-13.72
2024-01-11T00:03:54.175Z,-13.95
2024-01-11T00:05:57.160Z,-13.94
2024-01-11T00:08:00.049Z,-13.89
2024-01-11T00:10:05.096Z,-13.89
2024-01-11T00:12:08.151Z,-14.00
2024-01-11T00:14:11.575Z,-14.20
2024-01-11T00:16:14.307Z,-14.28
2024-01-11T00:18:17.170Z,-13.96
2024-01-11T00:20:20.423Z,-13.90
2024-01-11T00:22:23.223Z,-13.78
2024-01-11T00:24:26.036Z,-13.90
2024-01-11T00:26:28.969Z,-13.84
2024-01-11T00:28:31.483Z,-13.49
2024-01-11T00:30:34.167Z,-13.66
2024-01-11T00:32:36.830Z,-13.84
2024-01-11T00:34:40.821Z,-13.84
2024-01-11T00:36:44.141Z,-13.34
2024-01-11T00:38:47.459Z,-13.22
2024-01-11T00:40:50.789Z,-13.97
2024-01-11T00:42:53.184Z,-13.22
2024-01-11T00:44:55.905Z,-13.77
2024-01-11T00:46:58.740Z,-13.71
2024-01-11T00:49:02.183Z,-13.95
2024-01-11T00:51:08.719Z,-13.86
2024-01-11T00:53:12.669Z,-13.89
2024-01-11T00:55:15.612Z,-13.52
2024-01-11T00:57:19.864Z,-13.35
2024-01-11T00:59:23.655Z,-13.73
2024-01-11T01:01:26.401Z,-13.76
2024-01-11T01:03:28.784Z,-13.64
2024-01-11T01:05:31.701Z,-13.15
2024-01-11T01:07:34.224Z,-13.75
2024-01-11T01:09:36.699Z,-13.68
2024-01-11T01:11:39.299Z,-13.63
2024-01-11T01:13:41.549Z,-13.34
2024-01-11T01:15:43.969Z,-13.40
2024-01-11T01:17:46.573Z,-13.58
2024-01-11T01:19:49.448Z,-13.60
2024-01-11T01:21:52.259Z,-13.58
2024-01-11T01:23:55.584Z,-12.93
2024-01-11T01:25:58.975Z,-13.47
2024-01-11T01:28:02.534Z,-14.23
2024-01-11T01:30:06.550Z,-13.60
2024-01-11T01:32:09.510Z,-13.56
2024-01-11T01:34:12.333Z,-12.90
2024-01-11T01:36:15.412Z,-13.16
2024-01-11T01:38:19.849Z,-13.46
2024-01-11T01:40:22.565Z,-13.71
2024-01-11T01:42:25.118Z,-14.16
2024-01-11T01:44:28.110Z,-13.60
2024-01-11T01:46:31.021Z,-13.21
2024-01-11T01:48:34.576Z,-14.11
2024-01-11T01:50:37.721Z,-13.24
2024-01-11T01:52:43.047Z,-13.74
2024-01-11T01:54:46.674Z,-13.71
2024-01-11T01:56:50.499Z,-13.85
2024-01-11T01:58:55.113Z,-13.63
2024-01-11T02:00:59.230Z,-13.25
2024-01-11T02:03:02.525Z,-13.59
2024-01-11T02:05:07.303Z,-14.20
2024-01-11T02:07:10.659Z,-13.61
2024-01-11T02:09:15.520Z,-13.79
2024-01-11T02:11:20.757Z,-13.83
2024-01-11T02:13:23.858Z,-13.86
2024-01-11T02:15:26.853Z,-14.25
2024-01-11T02:17:29.620Z,-13.65
2024-01-11T02:19:33.039Z,-13.85
2024-01-11T02:21:36.495Z,-13.43
2024-01-11T02:24:07.725Z,-14.05
2024-01-11T02:26:10.709Z,-13.84
2024-01-11T02:28:14.251Z,-13.76
2024-01-11T02:30:18.100Z,-14.00
2024-01-11T02:32:21.781Z,-13.90
2024-01-11T02:34:25.906Z,-14.27
2024-01-11T02:36:29.271Z,-13.36
2024-01-11T02:38:31.782Z,-13.36
2024-01-11T02:40:35.730Z,-14.10
2024-01-11T02:42:38.209Z,-14.02
2024-01-11T02:44:40.940Z,-13.48
2024-01-11T02:46:43.361Z,-13.95
2024-01-11T02:48:46.245Z,-14.15
2024-01-11T02:50:50.388Z,-13.78
2024-01-11T02:52:52.857Z,-14.02
2024-01-11T02:54:55.496Z,-14.11
2024-01-11T02:56:58.702Z,-13.94
2024-01-11T02:59:01.262Z,-13.71
2024-01-11T03:01:03.772Z,-13.84
2024-01-11T03:03:07.045Z,-14.25
2024-01-11T03:05:10.347Z,-14.05
2024-01-11T03:07:12.666Z,-14.07
2024-01-11T03:09:15.472Z,-13.13
2024-01-11T03:11:18.564Z,-13.82
2024-01-11T03:13:21.092Z,-13.44
2024-01-11T03:15:23.813Z,-14.36
2024-01-11T03:17:27.629Z,-13.89
2024-01-11T03:19:30.195Z,-13.92
2024-01-11T03:21:32.778Z,-14.04
2024-01-11T03:23:35.139Z,-14.24
2024-01-11T03:25:37.541Z,-13.34
2024-01-11T03:27:39.839Z,-14.05
2024-01-11T03:29:42.447Z,-14.53
2024-01-11T03:31:46.604Z,-14.39
2024-01-11T03:33:49.326Z,-14.23
2024-01-11T03:35:51.900Z,-14.07
2024-01-11T03:37:54.486Z,-14.20
2024-01-11T03:39:56.944Z,-13.81
2024-01-11T03:41:59.476Z,-14.22
2024-01-11T03:44:02.526Z,-14.30
2024-01-11T03:46:05.539Z,-14.25
2024-01-11T03:48:08.185Z,-14.21
2024-01-11T03:50:10.908Z,-13.34
2024-01-11T03:52:13.364Z,-14.33
2024-01-11T03:54:16.107Z,-14.11
2024-01-11T03:56:18.516Z,-14.20
2024-01-11T03:58:20.864Z,-14.30
2024-01-11T04:00:23.767Z,-14.72
2024-01-11T04:02:27.031Z,-14.27
2024-01-11T04:04:29.835Z,-13.95
2024-01-11T04:06:33.092Z,-14.47
2024-01-11T04:08:36.198Z,-13.80
2024-01-11T04:10:38.864Z,-14.27
2024-01-11T04:12:44.203Z,-13.66
2024-01-11T04:14:46.783Z,-14.24
2024-01-11T04:16:50.328Z,-14.45
2024-01-11T04:18:53.520Z,-14.36
2024-01-11T04:20:55.981Z,-14.27
2024-01-11T04:22:58.918Z,-13.51
2024-01-11T04:25:01.844Z,-14.57
2024-01-11T04:27:04.508Z,-14.55
2024-01-11T04:29:09.864Z,-13.84
2024-01-11T04:31:12.317Z,-14.42
2024-01-11T04:33:14.802Z,-14.49
2024-01-11T04:35:17.856Z,-14.00
2024-01-11T04:37:20.505Z,-14.42
2024-01-11T04:39:23.262Z,-14.15
2024-01-11T04:41:26.031Z,-14.34
2024-01-11T04:43:28.588Z,-14.65
2024-01-11T04:45:31.281Z,-14.48
2024-01-11T04:47:33.951Z,-14.24
2024-01-11T04:49:36.962Z,-13.56
2024-01-11T04:51:39.428Z,-14.12
2024-01-11T04:53:42.722Z,-14.23
2024-01-11T04:55:45.313Z,-14.63
2024-01-11T04:57:47.974Z,-13.72
2024-01-11T04:59:50.461Z,-14.25
2024-01-11T05:01:53.002Z,-13.73
2024-01-11T05:03:55.948Z,-14.56
2024-01-11T05:05:59.755Z,-14.26
2024-01-11T05:08:02.411Z,-14.07
2024-01-11T05:10:05.659Z,-14.47
2024-01-11T05:12:08.876Z,-14.63
2024-01-11T05:14:11.478Z,-14.38
2024-01-11T05:16:30.063Z,-14.51
2024-01-11T05:18:35.161Z,-14.56
2024-01-11T05:20:38.776Z,-14.62
2024-01-11T05:22:41.325Z,-14.19
2024-01-11T05:24:43.768Z,-14.88
2024-01-11T05:26:47.646Z,-14.25
2024-01-11T05:28:50.365Z,-14.33
2024-01-11T05:30:53.075Z,-14.26
2024-01-11T05:32:56.242Z,-14.76
2024-01-11T05:34:58.997Z,-14.27
2024-01-11T05:37:01.538Z,-13.91
2024-01-11T05:39:04.776Z,-15.17
2024-01-11T05:41:08.455Z,-13.97
2024-01-11T05:43:11.244Z,-14.37
2024-01-11T05:45:18.051Z,-14.30
2024-01-11T05:47:21.727Z,-13.96
2024-01-11T05:49:24.269Z,-14.26
2024-01-11T05:51:27.162Z,-14.29
2024-01-11T05:53:29.846Z,-14.96
2024-01-11T05:55:32.579Z,-13.87
2024-01-11T05:57:35.089Z,-14.28
2024-01-11T05:59:37.988Z,-14.23
2024-01-11T06:01:47.693Z,-14.70
2024-01-11T06:03:50.431Z,-15.11
2024-01-11T06:05:53.310Z,-14.58
2024-01-11T06:07:56.192Z,-14.27
2024-01-11T06:09:59.172Z,-14.57
2024-01-11T06:12:02.691Z,-14.94
2024-01-11T06:14:05.373Z,-14.61
2024-01-11T06:16:12.263Z,-14.49
2024-01-11T06:18:16.086Z,-13.67
2024-01-11T06:20:18.783Z,-14.65
2024-01-11T06:22:22.184Z,-14.46
2024-01-11T06:24:24.495Z,-14.67
2024-01-11T06:26:26.949Z,-14.12
2024-01-11T06:28:29.534Z,-14.49
2024-01-11T06:30:31.817Z,-15.15
2024-01-11T06:32:34.415Z,-14.55
2024-01-11T06:34:38.155Z,-14.64
2024-01-11T06:36:40.777Z,-14.14
2024-01-11T06:38:43.262Z,-14.99
2024-01-11T06:40:45.966Z,-14.78
2024-01-11T06:42:48.577Z,-14.85
2024-01-11T06:44:51.231Z,-14.68
2024-01-11T06:46:53.908Z,-15.02
2024-01-11T06:48:56.870Z,-14.64
2024-01-11T06:51:02.183Z,-14.81
2024-01-11T06:53:06.267Z,-15.29
2024-01-11T06:55:09.371Z,-15.12
2024-01-11T06:57:11.843Z,-14.59
2024-01-11T06:59:15.123Z,-14.26
2024-01-11T07:01:18.665Z,-14.76
2024-01-11T07:03:21.466Z,-14.00
2024-01-11T07:05:24.164Z,-14.49
2024-01-11T07:07:27.955Z,-14.64
2024-01-11T07:09:30.611Z,-14.80
2024-01-11T07:11:33.770Z,-14.32
2024-01-11T07:13:37.000Z,-14.11
2024-01-11T07:15:39.702Z,-14.27
2024-01-11T07:17:42.164Z,-14.27
2024-01-11T07:19:45.010Z,-13.69
2024-01-11T07:21:47.725Z,-13.65
2024-01-11T07:23:50.758Z,-13.07
2024-01-11T07:25:53.598Z,-13.35
2024-01-11T07:27:56.448Z,-12.77
2024-01-11T07:29:59.979Z,-12.55
2024-01-11T07:32:03.226Z,-12.36
2024-01-11T07:34:06.284Z,-12.57
2024-01-11T07:36:09.174Z,-12.26
2024-01-11T07:38:11.832Z,-11.77
2024-01-11T07:40:15.184Z,-12.02
2024-01-11T07:42:17.926Z,-11.82
2024-01-11T07:44:20.502Z,-11.52
2024-01-11T07:46:32.819Z,-11.25
2024-01-11T07:48:41.416Z,-10.63
2024-01-11T07:50:44.005Z,-11.28
2024-01-11T07:52:47.226Z,-11.17
2024-01-11T07:54:50.295Z,-11.18
2024-01-11T07:56:53.335Z,-11.43
2024-01-11T07:58:56.976Z,-11.20
2024-01-11T08:00:59.503Z,-11.52
2024-01-11T08:03:02.033Z,-11.17
2024-01-11T08:05:05.800Z,-10.95
2024-01-11T08:07:08.638Z,-10.92
2024-01-11T08:09:11.953Z,-10.33
2024-01-11T08:11:14.828Z,-10.40
2024-01-11T08:13:19.787Z,-10.23
2024-01-11T08:15:23.036Z,-10.15
2024-01-11T08:17:26.034Z,-10.12
2024-01-11T08:19:28.863Z,-10.20
2024-01-11T08:21:31.497Z,-9.56
2024-01-11T08:23:34.699Z,-9.94
2024-01-11T08:25:37.310Z,-9.93
2024-01-11T08:27:40.251Z,-9.80
2024-01-11T08:29:42.733Z,-10.31
2024-01-11T08:31:45.247Z,-9.29
2024-01-11T08:33:48.029Z,-9.89
2024-01-11T08:35:51.189Z,-9.72
2024-01-11T08:37:53.604Z,-9.44
2024-01-11T08:39:56.219Z,-9.97
2024-01-11T08:41:59.671Z,-9.61
2024-01-11T08:44:04.094Z,-9.26
2024-01-11T08:46:06.715Z,-9.28
2024-01-11T08:48:09.333Z,-9.26
2024-01-11T08:50:16.860Z,-9.63
2024-01-11T08:52:20.622Z,-8.63
2024-01-11T08:54:23.293Z,-8.85
2024-01-11T08:56:26.090Z,-8.90
2024-01-11T08:58:28.420Z,-9.26
2024-01-11T09:00:31.235Z,-9.34
2024-01-11T09:02:34.084Z,-8.81
2024-01-11T09:04:36.646Z,-8.98
2024-01-11T09:06:39.410Z,-7.93
2024-01-11T09:08:44.573Z,-8.66
2024-01-11T09:10:47.103Z,-8.80
2024-01-11T09:12:49.611Z,-8.46
2024-01-11T09:14:52.006Z,-8.18
2024-01-11T09:16:54.528Z,-8.16
2024-01-11T09:18:58.645Z,-8.01
2024-01-11T09:21:01.212Z,-7.76
2024-01-11T09:23:05.413Z,-8.49
2024-01-11T09:25:09.972Z,-7.77
2024-01-11T09:27:12.666Z,-7.82
2024-01-11T09:29:15.369Z,-7.59
2024-01-11T09:31:18.084Z,-7.37
2024-01-11T09:33:20.490Z,-7.95
2024-01-11T09:35:26.520Z,-6.99
2024-01-11T09:37:29.499Z,-7.40
2024-01-11T09:39:32.617Z,-7.03
2024-01-11T09:41:38.580Z,-7.37
2024-01-11T09:43:43.789Z,-6.86
2024-01-11T09:45:47.198Z,-6.72
2024-01-11T09:47:52.250Z,-6.49
2024-01-11T09:49:57.206Z,-7.07
2024-01-11T09:52:03.058Z,-6.45
2024-01-11T09:54:06.311Z,-7.20
2024-01-11T09:56:12.947Z,-6.68
2024-01-11T09:58:16.710Z,-6.79
2024-01-11T10:00:23.508Z,-6.11
2024-01-11T10:02:28.406Z,-6.49
2024-01-11T10:04:30.891Z,-6.17
2024-01-11T10:06:39.951Z,-6.35
2024-01-11T10:08:42.921Z,-5.74
2024-01-11T10:10:45.223Z,-6.45
2024-01-11T10:12:50.095Z,-5.99
2024-01-11T10:14:53.808Z,-6.01
2024-01-11T10:16:56.908Z,-6.28
2024-01-11T10:18:59.855Z,-6.13
2024-01-11T10:21:03.260Z,-5.26
2024-01-11T10:23:06.717Z,-5.37
2024-01-11T10:25:12.872Z,-5.60
2024-01-11T10:27:15.550Z,-5.56
2024-01-11T10:29:19.873Z,-5.73
2024-01-11T10:31:28.954Z,-5.37
2024-01-11T10:33:31.600Z,-5.32
2024-01-11T10:35:37.485Z,-5.23
2024-01-11T10:37:40.779Z,-4.54
2024-01-11T10:39:44.649Z,-4.75
2024-01-11T10:41:53.414Z,-5.18
2024-01-11T10:44:00.498Z,-4.77
2024-01-11T10:46:06.175Z,-4.40
2024-01-11T10:48:15.697Z,-4.03
2024-01-11T10:50:21.063Z,-4.35
2024-01-11T10:52:30.051Z,-4.32
2024-01-11T10:54:36.077Z,-4.57
2024-01-11T10:56:42.854Z,-4.39
2024-01-11T10:58:46.495Z,-4.00
2024-01-11T11:00:51.268Z,-3.83
2024-01-11T11:02:56.531Z,-3.57
2024-01-11T11:05:00.771Z,-3.76
2024-01-11T11:07:04.072Z,-3.88
2024-01-11T11:09:09.379Z,-3.82
2024-01-11T11:11:12.792Z,-3.80
2024-01-11T11:13:16.746Z,-4.23
2024-01-11T11:15:21.687Z,-3.64
2024-01-11T11:17:24.062Z,-3.91
2024-01-11T11:19:27.449Z,-3.76
2024-01-11T11:21:30.341Z,-3.46
2024-01-11T11:23:32.843Z,-2.94
2024-01-11T11:25:36.512Z,-3.11
2024-01-11T11:27:39.703Z,-2.55
2024-01-11T11:29:43.751Z,-2.95
2024-01-11T11:31:49.322Z,-2.42
2024-01-11T11:33:54.673Z,-3.16
2024-01-11T11:36:01.282Z,-3.06
2024-01-11T11:38:05.132Z,-2.91
2024-01-11T11:40:12.252Z,-2.33
2024-01-11T11:42:16.779Z,-2.71
2024-01-11T11:44:19.665Z,-2.46
2024-01-11T11:46:22.232Z,-2.25
2024-01-11T11:48:31.464Z,-1.78
2024-01-11T11:50:36.118Z,-2.60
2024-01-11T11:52:41.222Z,-2.18
2024-01-11T11:54:46.226Z,-2.44
2024-01-11T11:56:49.130Z,-2.44
2024-01-11T11:58:57.114Z,-2.15
2024-01-11T12:01:01.055Z,-1.49
2024-01-11T12:03:05.756Z,-1.76
2024-01-11T12:05:09.564Z,-1.48
2024-01-11T12:07:13.263Z,-1.81
2024-01-11T12:09:22.763Z,-1.58
2024-01-11T12:11:27.357Z,-2.15
2024-01-11T12:13:32.446Z,-1.90
2024-01-11T12:15:35.644Z,-2.13
2024-01-11T12:17:40.515Z,-1.81
2024-01-11T12:19:44.081Z,-1.41
2024-01-11T12:21:46.614Z,-2.25
2024-01-11T12:23:50.404Z,-1.99
2024-01-11T12:25:54.595Z,-1.90
2024-01-11T12:27:57.983Z,-1.86
2024-01-11T12:30:02.811Z,-1.33
2024-01-11T12:32:06.628Z,-1.21
2024-01-11T12:34:10.345Z,-2.00
2024-01-11T12:36:13.791Z,-1.68
2024-01-11T12:38:17.400Z,-1.60
2024-01-11T12:40:20.223Z,-1.64
2024-01-11T12:42:23.130Z,-1.53
2024-01-11T12:44:26.267Z,-1.72
2024-01-11T12:46:30.076Z,-1.83
2024-01-11T12:48:33.453Z,-1.26
2024-01-11T12:50:37.435Z,-1.22
2024-01-11T12:52:40.827Z,-1.21
2024-01-11T12:54:48.605Z,-1.73
2024-01-11T12:56:52.129Z,-0.89
2024-01-11T12:59:08.506Z,-0.92
2024-01-11T13:01:12.361Z,-1.44
2024-01-11T13:03:15.041Z,-1.49
2024-01-11T13:05:17.911Z,-1.44
2024-01-11T13:07:21.377Z,-0.92
2024-01-11T13:09:24.796Z,-1.31
2024-01-11T13:11:28.020Z,-0.98
2024-01-11T13:13:31.941Z,-1.21
2024-01-11T13:15:34.371Z,-1.41
2024-01-11T13:17:37.901Z,-0.72
2024-01-11T13:19:41.456Z,-1.09
2024-01-11T13:21:44.562Z,-1.19
2024-01-11T13:23:47.825Z,-1.39
2024-01-11T13:25:51.717Z,-0.78
2024-01-11T13:27:55.678Z,-1.13
2024-01-11T13:29:58.589Z,-1.06
2024-01-11T13:32:03.810Z,-0.89
2024-01-11T13:34:08.858Z,-1.17
2024-01-11T13:36:12.009Z,-1.16
2024-01-11T13:38:15.006Z,-0.67
2024-01-11T13:40:17.547Z,-1.21
2024-01-11T13:42:20.438Z,-1.59
2024-01-11T13:44:25.074Z,-1.13
2024-01-11T13:46:28.781Z,-1.08
2024-01-11T13:48:33.557Z,-0.96
2024-01-11T13:50:36.805Z,-1.02
2024-01-11T13:52:39.938Z,-0.98
2024-01-11T13:54:42.852Z,-0.54
2024-01-11T13:56:46.094Z,-1.05
2024-01-11T13:58:49.475Z,-1.10
2024-01-11T14:00:53.193Z,-0.84
2024-01-11T14:02:56.770Z,-1.04
2024-01-11T14:05:00.705Z,-0.81
2024-01-11T14:07:04.919Z,-1.48
2024-01-11T14:09:11.308Z,-1.01
2024-01-11T14:11:14.344Z,-1.00
2024-01-11T14:13:16.867Z,-1.02
2024-01-11T14:15:20.191Z,-0.95
2024-01-11T14:17:23.103Z,-1.45
2024-01-11T14:19:25.756Z,-1.06
2024-01-11T14:21:28.849Z,-0.88
2024-01-11T14:23:31.743Z,-1.40
2024-01-11T14:25:34.560Z,-1.07
2024-01-11T14:27:37.617Z,-1.56
2024-01-11T14:29:41.126Z,-0.81
2024-01-11T14:31:43.997Z,-1.62
2024-01-11T14:33:47.743Z,-1.56
2024-01-11T14:35:50.521Z,-0.68
2024-01-11T14:37:54.319Z,-0.67
2024-01-11T14:39:57.092Z,-1.27
2024-01-11T14:42:00.086Z,-1.28
2024-01-11T14:44:03.239Z,-1.40
2024-01-11T14:46:07.569Z,-1.16
2024-01-11T14:48:10.418Z,-0.97
2024-01-11T14:50:13.479Z,-1.38
2024-01-11T14:52:18.137Z,-0.95
2024-01-11T14:54:21.894Z,-1.17
2024-01-11T14:56:25.241Z,-1.48
2024-01-11T14:58:27.974Z,-1.01
2024-01-11T15:00:30.996Z,-1.34
2024-01-11T15:02:34.061Z,-1.14
2024-01-11T15:04:37.951Z,-1.42
2024-01-11T15:06:40.587Z,-1.30
2024-01-11T15:08:43.697Z,-1.73
2024-01-11T15:10:50.177Z,-1.52
2024-01-11T15:12:53.257Z,-1.94
2024-01-11T15:14:56.044Z,-1.37
2024-01-11T15:16:59.656Z,-1.68
2024-01-11T15:19:02.765Z,-1.73
2024-01-11T15:21:05.556Z,-1.60
2024-01-11T15:23:08.860Z,-2.07
2024-01-11T15:25:12.346Z,-1.33
2024-01-11T15:27:17.695Z,-1.25
2024-01-11T15:29:20.529Z,-1.60
2024-01-11T15:31:23.844Z,-1.44
2024-01-11T15:33:27.274Z,-1.38
2024-01-11T15:35:30.691Z,-1.76
2024-01-11T15:37:34.856Z,-1.82
2024-01-11T15:39:37.713Z,-1.56
2024-01-11T15:41:40.956Z,-1.26
2024-01-11T15:43:44.304Z,-1.50
2024-01-11T15:45:47.772Z,-1.90
2024-01-11T15:47:51.229Z,-2.28
2024-01-11T15:49:54.099Z,-1.96
2024-01-11T15:51:57.574Z,-1.71
2024-01-11T15:54:00.168Z,-1.97
2024-01-11T15:56:03.333Z,-1.83
2024-01-11T15:58:06.595Z,-1.59
2024-01-11T16:00:13.816Z,-2.01
2024-01-11T16:02:17.379Z,-1.48
2024-01-11T16:04:20.246Z,-2.35
2024-01-11T16:06:23.064Z,-2.48
2024-01-11T16:08:26.159Z,-1.80
2024-01-11T16:10:28.725Z,-2.25
2024-01-11T16:12:31.801Z,-2.10
2024-01-11T16:14:34.528Z,-2.33
2024-01-11T16:16:37.464Z,-2.67
2024-01-11T16:18:40.247Z,-2.33
2024-01-11T16:20:43.979Z,-1.89
2024-01-11T16:22:47.042Z,-2.24
2024-01-11T16:24:50.551Z,-2.44
2024-01-11T16:26:53.626Z,-2.24
2024-01-11T16:28:57.059Z,-2.12
2024-01-11T16:31:00.499Z,-1.92
2024-01-11T16:33:04.568Z,-2.31
2024-01-11T16:35:08.131Z,-2.24
2024-01-11T16:37:11.637Z,-1.91
2024-01-11T16:39:14.689Z,-2.74
2024-01-11T16:41:17.721Z,-2.05
2024-01-11T16:43:20.691Z,-2.83
2024-01-11T16:45:24.076Z,-2.51
2024-01-11T16:47:26.743Z,-2.32
2024-01-11T16:49:30.306Z,-2.02
2024-01-11T16:51:33.292Z,-2.74
2024-01-11T16:53:36.349Z,-2.63
2024-01-11T16:55:42.318Z,-2.50
2024-01-11T16:57:45.521Z,-2.17
2024-01-11T16:59:49.024Z,-2.47
2024-01-11T17:01:52.079Z,-2.57
2024-01-11T17:03:54.884Z,-2.60
2024-01-11T17:05:58.563Z,-2.34
2024-01-11T17:08:01.117Z,-2.42
2024-01-11T17:10:04.389Z,-2.49
2024-01-11T17:12:07.882Z,-2.46
2024-01-11T17:14:10.643Z,-2.34
2024-01-11T17:16:21.479Z,-2.01
2024-01-11T17:18:24.551Z,-2.40
2024-01-11T17:20:27.998Z,-2.42
2024-01-11T17:22:31.843Z,-2.34
2024-01-11T17:24:35.309Z,-2.67
2024-01-11T17:26:38.547Z,-2.11
2024-01-11T17:28:41.390Z,-2.50
2024-01-11T17:30:44.361Z,-2.45
2024-01-11T17:32:47.595Z,-2.10
2024-01-11T17:34:54.750Z,-2.79
2024-01-11T17:36:57.856Z,-2.23
2024-01-11T17:39:02.253Z,-2.39
2024-01-11T17:41:06.149Z,-2.47
2024-01-11T17:43:10.553Z,-2.88
2024-01-11T17:45:13.569Z,-2.19
2024-01-11T17:47:17.230Z,-2.95
2024-01-11T17:49:20.107Z,-2.78
2024-01-11T17:51:23.288Z,-2.55
2024-01-11T17:53:26.106Z,-2.50
2024-01-11T17:55:29.817Z,-2.86
2024-01-11T18:00:11.359Z,-2.90
2024-01-11T18:02:14.423Z,-2.80
2024-01-11T18:04:17.704Z,-2.51
2024-01-11T18:06:20.792Z,-2.40
2024-01-11T18:08:24.408Z,-2.42
2024-01-11T18:10:27.195Z,-2.79
2024-01-11T18:12:30.603Z,-2.53
2024-01-11T18:14:33.406Z,-2.12
2024-01-11T18:16:36.733Z,-2.64
2024-01-11T18:18:40.285Z,-2.62
2024-01-11T18:20:43.689Z,-2.31
2024-01-11T18:22:46.283Z,-2.52
2024-01-11T18:24:49.249Z,-2.93
2024-01-11T18:26:53.220Z,-2.17
2024-01-11T18:28:56.945Z,-2.35
2024-01-11T18:31:00.396Z,-1.95
2024-01-11T18:33:04.457Z,-2.11
2024-01-11T18:35:10.663Z,-2.84
2024-01-11T18:37:13.779Z,-2.35
2024-01-11T18:39:19.815Z,-2.39
2024-01-11T18:41:23.256Z,-2.57
2024-01-11T18:43:26.928Z,-2.06
2024-01-11T18:45:33.023Z,-2.39
2024-01-11T18:47:36.147Z,-2.33
2024-01-11T18:49:39.308Z,-2.43
2024-01-11T18:51:43.692Z,-1.98
2024-01-11T18:53:47.530Z,-2.13
2024-01-11T18:55:50.836Z,-2.64
2024-01-11T18:57:53.963Z,-2.56
2024-01-11T18:59:57.493Z,-2.30
2024-01-11T19:02:00.874Z,-2.62
2024-01-11T19:04:04.708Z,-2.44
2024-01-11T19:06:10.303Z,-2.41
2024-01-11T19:08:13.722Z,-3.01
2024-01-11T19:10:17.385Z,-2.22
2024-01-11T19:12:20.481Z,-3.02
2024-01-11T19:14:23.509Z,-2.35
2024-01-11T19:16:26.689Z,-3.24
2024-01-11T19:18:30.435Z,-2.19
2024-01-11T19:20:33.516Z,-2.64
2024-01-11T19:22:36.890Z,-2.67
2024-01-11T19:24:40.345Z,-2.48
2024-01-11T19:26:44.442Z,-2.26
2024-01-11T19:28:48.277Z,-2.66
2024-01-11T19:30:56.313Z,-2.49
2024-01-11T19:33:08.322Z,-3.12
2024-01-11T19:35:12.228Z,-2.47
2024-01-11T19:37:18.738Z,-2.68
2024-01-11T19:39:23.902Z,-2.77
2024-01-11T19:41:28.423Z,-2.75
2024-01-11T19:43:34.888Z,-2.33
2024-01-11T19:45:37.839Z,-2.85
2024-01-11T19:47:41.319Z,-2.43
2024-01-11T19:49:44.916Z,-2.63
2024-01-11T19:51:48.746Z,-2.26
2024-01-11T19:53:52.577Z,-2.35
2024-01-11T19:55:55.977Z,-2.70
2024-01-11T19:57:58.867Z,-2.56
2024-01-11T20:00:02.006Z,-2.69
2024-01-11T20:02:13.978Z,-2.36
2024-01-11T20:04:17.511Z,-2.38
2024-01-11T20:06:21.461Z,-2.19
2024-01-11T20:08:26.240Z,-2.73
2024-01-11T20:10:29.879Z,-2.63
2024-01-11T20:12:33.773Z,-3.12
2024-01-11T20:14:38.135Z,-2.33
2024-01-11T20:16:44.534Z,-2.60
2024-01-11T20:18:47.511Z,-2.14
2024-01-11T20:20:53.660Z,-2.81
2024-01-11T20:22:58.038Z,-3.04
2024-01-11T20:25:01.569Z,-2.46
2024-01-11T20:27:06.247Z,-2.98
2024-01-11T20:29:09.500Z,-3.00
2024-01-11T20:31:14.237Z,-2.34
2024-01-11T20:33:17.758Z,-2.14
2024-01-11T20:35:21.016Z,-2.08
2024-01-11T20:37:25.199Z,-2.42
2024-01-11T20:39:28.522Z,-2.83
2024-01-11T20:41:32.269Z,-2.66
2024-01-11T20:43:36.048Z,-2.57
2024-01-11T20:45:39.956Z,-2.15
2024-01-11T20:47:42.685Z,-2.58
2024-01-11T20:49:45.516Z,-2.50
2024-01-11T20:51:49.121Z,-2.31
2024-01-11T20:53:57.905Z,-2.72
2024-01-11T20:56:02.241Z,-2.62
2024-01-11T20:58:05.772Z,-2.30
2024-01-11T21:00:10.554Z,-2.65
2024-01-11T21:02:13.834Z,-2.35
2024-01-11T21:04:16.649Z,-1.98
2024-01-11T21:06:20.107Z,-2.80
2024-01-11T21:08:23.183Z,-2.31
2024-01-11T21:10:28.309Z,-2.38
2024-01-11T21:12:31.256Z,-2.10
2024-01-11T21:14:35.319Z,-2.41
2024-01-11T21:16:40.028Z,-2.84
2024-01-11T21:18:43.636Z,-2.01
2024-01-11T21:20:50.137Z,-3.11
2024-01-11T21:22:53.385Z,-1.96
2024-01-11T21:24:57.350Z,-2.73
2024-01-11T21:27:00.601Z,-2.23
2024-01-11T21:29:03.853Z,-2.43
2024-01-11T21:31:07.124Z,-2.04
2024-01-11T21:33:10.438Z,-2.95
2024-01-11T21:35:13.990Z,-1.97
2024-01-11T21:37:17.214Z,-2.79
2024-01-11T21:39:19.809Z,-2.07
2024-01-11T21:41:29.388Z,-2.15
2024-01-11T21:43:33.608Z,-2.08
2024-01-11T21:45:37.991Z,-2.69
2024-01-11T21:47:40.935Z,-2.45
2024-01-11T21:49:44.523Z,-2.13
2024-01-11T21:51:50.841Z,-2.25
2024-01-11T21:53:59.836Z,-1.92
2024-01-11T21:56:02.748Z,-2.15
2024-01-11T21:58:05.971Z,-1.97
2024-01-11T22:00:10.352Z,-2.30
2024-01-11T22:02:13.032Z,-1.85
2024-01-11T22:04:15.896Z,-2.24
2024-01-11T22:06:19.211Z,-1.99
2024-01-11T22:08:23.121Z,-2.24
2024-01-11T22:10:25.892Z,-1.86
2024-01-11T22:12:28.479Z,-1.99
2024-01-11T22:14:31.347Z,-2.62
2024-01-11T22:16:35.074Z,-2.79
2024-01-11T22:18:38.570Z,-2.50
2024-01-11T22:20:42.546Z,-2.60
2024-01-11T22:22:45.244Z,-2.81
2024-01-11T22:24:47.829Z,-2.28
2024-01-11T22:26:51.307Z,-2.28
2024-01-11T22:28:54.229Z,-2.57
2024-01-11T22:30:57.239Z,-1.82
2024-01-11T22:33:00.026Z,-2.58
2024-01-11T22:35:05.146Z,-1.76
2024-01-11T22:37:07.803Z,-2.38
2024-01-11T22:39:10.142Z,-2.51
2024-01-11T22:41:12.708Z,-1.85
2024-01-11T22:43:15.988Z,-2.03
2024-01-11T22:45:19.184Z,-1.98
2024-01-11T22:47:21.754Z,-2.50
2024-01-11T22:49:25.298Z,-1.89
2024-01-11T22:51:28.104Z,-1.74
2024-01-11T22:53:30.732Z,-2.55
2024-01-11T22:55:34.424Z,-2.41
2024-01-11T22:57:37.645Z,-2.27
2024-01-11T22:59:40.208Z,-2.69
2024-01-11T23:01:43.926Z,-1.67
2024-01-11T23:03:47.453Z,-1.92
2024-01-11T23:05:50.018Z,-1.76
2024-01-11T23:07:53.283Z,-2.18
2024-01-11T23:09:56.695Z,-2.14
2024-01-11T23:12:02.365Z,-1.75
2024-01-11T23:14:06.334Z,-1.74
2024-01-11T23:16:09.456Z,-1.64
2024-01-11T23:18:12.948Z,-2.09
2024-01-11T23:20:16.935Z,-2.73
2024-01-11T23:22:20.065Z,-1.67
2024-01-11T23:24:22.445Z,-2.45
2024-01-11T23:26:25.015Z,-1.82
2024-01-11T23:28:27.613Z,-1.99
2024-01-11T23:30:30.096Z,-2.04
2024-01-11T23:32:33.166Z,-1.67
2024-01-11T23:34:36.281Z,-1.61
2024-01-11T23:36:39.534Z,-2.26
2024-01-11T23:38:42.255Z,-1.86
2024-01-11T23:40:44.654Z,-1.64
2024-01-11T23:42:46.996Z,-2.00
2024-01-11T23:44:49.940Z,-1.76
2024-01-11T23:46:52.370Z,-1.61
2024-01-11T23:48:54.997Z,-2.50
2024-01-11T23:50:57.971Z,-1.70
2024-01-11T23:53:02.118Z,-1.83
2024-01-11T23:55:06.293Z,-1.78
2024-01-11T23:57:09.437Z,-1.71
2024-01-11T23:59:12.325Z,-2.32
